Garden Plain, Illinois
Current Conditions -  °F | °C
As of 2:35 AM on Sunday 21 Dec 2014 (Local Time) from KCWI Reporting Station
Overcast Overcast  
Wind Chill: 26°   Ceiling: 900
Heat Index: 32°   Visibility: 3mi
Dew Point: 30°   Wind: 7mph
Humidity: 93%   Direction: 150°SSE
Pressure: 30.19"   Gusts: NA
Location:  41.8428°N, 90.1189°W
Report Text: KCWI 210835Z AUTO 15006KT 3SM OVC009 00/M01 A3019 RMK AO1
Loading
Personal Weather Stations






























Interactive Weather Map New forecast layout! Learn more

10-Day Weather Forecast

Advertisements
Track Severe Weather on mobile